Impacts TAF Board
For situational awareness. Not to be used for flight planning purposes.
IDs:

KMCO - Orlando Intl, FL, US

Issued at 1135 UTC 24 Aug 2019
Updated at 1308 UTC 24 Aug 2019
Potential Impact None Slight Moderate High
Time<<25/02Z 25/03Z 25/04Z 25/05Z 25/06Z 25/07Z 25/08Z 25/09Z 25/10Z 25/11Z 25/12Z 25/13Z 25/14Z>>
Type PRVL PRVL PRVL PRVL PRVL PRVL PRVL PRVL PRVL PRVL PRVL PRVL PRVL
VIS >6 >6 >6 >6 >6 >6 >6 >6 >6 >6 >6 >6 >6
CIG 120 120 120 120 120 120 120 120 120 120 120 120 80
Cover BKN BKN BKN BKN BKN BKN BKN BKN BKN BKN BKN BKN BKN
FltCat VFR VFR VFR VFR VFR VFR VFR VFR VFR VFR VFR VFR VFR
WX -- -- -- -- -- -- -- -- -- -- -- -- --
WDir 60 60 60 60 60 60 60 60 60 60 60 60 10
WSpd 4 4 4 4 4 4 4 4 4 4 4 4 5
WGst -- -- -- -- -- -- -- -- -- -- -- -- --
Raw TAF
KMCO 241135Z 2412/2518 04006KT P6SM FEW045 FEW250
  FM241400 02005KT P6SM SCT035 SCT250
  FM241600 04010KT P6SM VCSH SCT040 BKN070
  FM250000 06004KT P6SM SCT025 BKN120
  FM251400 01005KT P6SM SCT035 BKN080


METAR Board
Radar Display
Forecast Discussion
For situational awareness. Not to be used for flight planning purposes.